sensor_id;sensor_type;location;lat;lon;timestamp;pressure;altitude;pressure_sealevel;temperature;humidity
47054;BME280;32811;52.382;5.270;2023-04-03T00:01:09;103205.09;;;2.28;100.00
47054;BME280;32811;52.382;5.270;2023-04-03T00:03:38;103201.28;;;2.23;100.00
47054;BME280;32811;52.382;5.270;2023-04-03T00:06:05;103200.09;;;2.29;100.00
47054;BME280;32811;52.382;5.270;2023-04-03T00:08:39;103195.53;;;2.25;100.00
47054;BME280;32811;52.382;5.270;2023-04-03T00:11:08;103196.19;;;2.23;100.00
47054;BME280;32811;52.382;5.270;2023-04-03T00:13:36;103211.41;;;2.33;100.00
47054;BME280;32811;52.382;5.270;2023-04-03T00:16:04;103207.19;;;2.34;100.00
47054;BME280;32811;52.382;5.270;2023-04-03T00:18:32;103195.91;;;2.30;100.00
47054;BME280;32811;52.382;5.270;2023-04-03T00:21:00;103206.72;;;2.27;100.00
47054;BME280;32811;52.382;5.270;2023-04-03T00:23:27;103201.72;;;2.17;100.00
47054;BME280;32811;52.382;5.270;2023-04-03T00:25:54;103206.47;;;2.13;100.00
47054;BME280;32811;52.382;5.270;2023-04-03T00:28:21;103200.72;;;2.15;100.00
47054;BME280;32811;52.382;5.270;2023-04-03T00:30:50;103205.66;;;2.14;100.00
47054;BME280;32811;52.382;5.270;2023-04-03T00:33:18;103213.66;;;2.18;100.00
47054;BME280;32811;52.382;5.270;2023-04-03T00:35:50;103211.25;;;2.20;100.00
47054;BME280;32811;52.382;5.270;2023-04-03T00:38:17;103210.91;;;2.15;100.00
47054;BME280;32811;52.382;5.270;2023-04-03T00:40:47;103209.88;;;2.13;100.00
47054;BME280;32811;52.382;5.270;2023-04-03T00:43:23;103212.31;;;2.12;100.00
47054;BME280;32811;52.382;5.270;2023-04-03T00:45:52;103221.38;;;2.08;100.00
47054;BME280;32811;52.382;5.270;2023-04-03T00:48:24;103209.06;;;2.02;100.00
47054;BME280;32811;52.382;5.270;2023-04-03T00:50:52;103217.47;;;2.01;100.00
47054;BME280;32811;52.382;5.270;2023-04-03T00:53:23;103213.31;;;1.92;100.00
47054;BME280;32811;52.382;5.270;2023-04-03T00:55:54;103208.22;;;1.92;100.00
47054;BME280;32811;52.382;5.270;2023-04-03T00:58:31;103218.41;;;1.92;100.00
47054;BME280;32811;52.382;5.270;2023-04-03T01:01:03;103214.84;;;1.90;100.00
47054;BME280;32811;52.382;5.270;2023-04-03T01:03:33;103216.34;;;1.98;100.00
47054;BME280;32811;52.382;5.270;2023-04-03T01:06:01;103223.50;;;1.92;100.00
47054;BME280;32811;52.382;5.270;2023-04-03T01:08:29;103231.91;;;1.91;100.00
47054;BME280;32811;52.382;5.270;2023-04-03T01:10:57;103211.72;;;1.82;100.00
47054;BME280;32811;52.382;5.270;2023-04-03T01:13:31;103226.22;;;1.83;100.00
47054;BME280;32811;52.382;5.270;2023-04-03T01:16:02;103226.13;;;1.81;100.00
47054;BME280;32811;52.382;5.270;2023-04-03T01:18:32;103228.94;;;1.74;100.00
47054;BME280;32811;52.382;5.270;2023-04-03T01:24:19;103229.34;;;1.69;100.00
47054;BME280;32811;52.382;5.270;2023-04-03T01:26:51;103222.88;;;1.62;100.00
47054;BME280;32811;52.382;5.270;2023-04-03T01:29:18;103227.75;;;1.59;100.00
47054;BME280;32811;52.382;5.270;2023-04-03T01:31:49;103233.84;;;1.61;100.00
47054;BME280;32811;52.382;5.270;2023-04-03T01:34:20;103235.47;;;1.60;100.00
47054;BME280;32811;52.382;5.270;2023-04-03T01:36:47;103229.13;;;1.55;100.00
47054;BME280;32811;52.382;5.270;2023-04-03T01:39:13;103231.53;;;1.54;100.00
47054;BME280;32811;52.382;5.270;2023-04-03T01:41:40;103226.72;;;1.57;100.00
47054;BME280;32811;52.382;5.270;2023-04-03T01:44:07;103229.91;;;1.54;100.00
47054;BME280;32811;52.382;5.270;2023-04-03T01:46:33;103227.88;;;1.50;100.00
47054;BME280;32811;52.382;5.270;2023-04-03T01:49:00;103226.88;;;1.48;100.00
47054;BME280;32811;52.382;5.270;2023-04-03T01:51:27;103228.28;;;1.44;100.00
47054;BME280;32811;52.382;5.270;2023-04-03T01:53:54;103231.59;;;1.43;100.00
47054;BME280;32811;52.382;5.270;2023-04-03T01:56:20;103229.44;;;1.38;100.00
47054;BME280;32811;52.382;5.270;2023-04-03T01:58:47;103230.44;;;1.40;100.00
47054;BME280;32811;52.382;5.270;2023-04-03T02:01:14;103229.84;;;1.32;100.00
47054;BME280;32811;52.382;5.270;2023-04-03T02:03:41;103223.84;;;1.32;100.00
47054;BME280;32811;52.382;5.270;2023-04-03T02:06:08;103227.94;;;1.30;100.00
47054;BME280;32811;52.382;5.270;2023-04-03T02:08:35;103228.69;;;1.29;100.00
47054;BME280;32811;52.382;5.270;2023-04-03T02:11:02;103225.28;;;1.28;100.00
47054;BME280;32811;52.382;5.270;2023-04-03T02:13:29;103232.78;;;1.27;100.00
47054;BME280;32811;52.382;5.270;2023-04-03T02:15:55;103223.63;;;1.29;100.00
47054;BME280;32811;52.382;5.270;2023-04-03T02:18:22;103222.38;;;1.23;100.00
47054;BME280;32811;52.382;5.270;2023-04-03T02:20:48;103227.56;;;1.25;100.00
47054;BME280;32811;52.382;5.270;2023-04-03T02:23:15;103223.00;;;1.21;100.00
47054;BME280;32811;52.382;5.270;2023-04-03T02:25:41;103235.81;;;1.22;100.00
47054;BME280;32811;52.382;5.270;2023-04-03T02:28:08;103239.78;;;1.19;100.00
47054;BME280;32811;52.382;5.270;2023-04-03T02:30:34;103241.19;;;1.15;100.00
47054;BME280;32811;52.382;5.270;2023-04-03T02:33:01;103246.03;;;1.12;100.00
47054;BME280;32811;52.382;5.270;2023-04-03T02:35:29;103248.69;;;1.14;100.00
47054;BME280;32811;52.382;5.270;2023-04-03T02:37:56;103245.91;;;1.11;100.00
47054;BME280;32811;52.382;5.270;2023-04-03T02:40:22;103256.97;;;1.11;100.00
47054;BME280;32811;52.382;5.270;2023-04-03T02:42:49;103250.38;;;1.03;100.00
47054;BME280;32811;52.382;5.270;2023-04-03T02:45:15;103254.06;;;0.96;100.00
47054;BME280;32811;52.382;5.270;2023-04-03T02:47:42;103257.63;;;0.98;100.00
47054;BME280;32811;52.382;5.270;2023-04-03T02:50:09;103252.03;;;0.92;100.00
47054;BME280;32811;52.382;5.270;2023-04-03T02:52:35;103249.34;;;0.91;100.00
47054;BME280;32811;52.382;5.270;2023-04-03T02:55:02;103256.09;;;0.90;100.00
47054;BME280;32811;52.382;5.270;2023-04-03T02:57:29;103256.09;;;0.90;100.00
47054;BME280;32811;52.382;5.270;2023-04-03T02:59:56;103257.47;;;0.87;100.00
47054;BME280;32811;52.382;5.270;2023-04-03T03:02:23;103260.66;;;0.84;100.00
47054;BME280;32811;52.382;5.270;2023-04-03T03:04:50;103261.44;;;0.83;100.00
47054;BME280;32811;52.382;5.270;2023-04-03T03:07:16;103270.59;;;0.81;100.00
47054;BME280;32811;52.382;5.270;2023-04-03T03:09:43;103272.75;;;0.76;100.00
47054;BME280;32811;52.382;5.270;2023-04-03T03:12:09;103283.03;;;0.78;100.00
47054;BME280;32811;52.382;5.270;2023-04-03T03:14:36;103285.31;;;0.75;100.00
47054;BME280;32811;52.382;5.270;2023-04-03T03:17:03;103286.72;;;0.71;100.00
47054;BME280;32811;52.382;5.270;2023-04-03T03:19:29;103283.91;;;0.68;100.00
47054;BME280;32811;52.382;5.270;2023-04-03T03:21:56;103279.88;;;0.70;100.00
47054;BME280;32811;52.382;5.270;2023-04-03T03:24:23;103290.16;;;0.72;100.00
47054;BME280;32811;52.382;5.270;2023-04-03T03:26:49;103281.38;;;0.68;100.00
47054;BME280;32811;52.382;5.270;2023-04-03T03:29:16;103280.22;;;0.65;100.00
47054;BME280;32811;52.382;5.270;2023-04-03T03:31:42;103286.22;;;0.65;100.00
47054;BME280;32811;52.382;5.270;2023-04-03T03:34:09;103283.03;;;0.68;100.00
47054;BME280;32811;52.382;5.270;2023-04-03T03:36:36;103290.28;;;0.63;100.00
47054;BME280;32811;52.382;5.270;2023-04-03T03:39:02;103289.38;;;0.62;100.00
47054;BME280;32811;52.382;5.270;2023-04-03T03:41:29;103279.59;;;0.57;100.00
47054;BME280;32811;52.382;5.270;2023-04-03T03:43:56;103300.19;;;0.70;100.00
47054;BME280;32811;52.382;5.270;2023-04-03T03:46:23;103278.22;;;0.60;100.00
47054;BME280;32811;52.382;5.270;2023-04-03T03:48:49;103277.41;;;0.51;100.00
47054;BME280;32811;52.382;5.270;2023-04-03T03:51:16;103282.63;;;0.53;100.00
47054;BME280;32811;52.382;5.270;2023-04-03T03:53:43;103286.59;;;0.49;100.00
47054;BME280;32811;52.382;5.270;2023-04-03T03:56:10;103288.97;;;0.48;100.00
47054;BME280;32811;52.382;5.270;2023-04-03T03:58:37;103296.75;;;0.49;100.00
47054;BME280;32811;52.382;5.270;2023-04-03T04:01:04;103300.81;;;0.47;100.00
47054;BME280;32811;52.382;5.270;2023-04-03T04:03:32;103296.47;;;0.46;100.00
47054;BME280;32811;52.382;5.270;2023-04-03T04:05:59;103297.88;;;0.43;100.00
47054;BME280;32811;52.382;5.270;2023-04-03T04:08:26;103304.56;;;0.42;100.00
47054;BME280;32811;52.382;5.270;2023-04-03T04:10:53;103305.34;;;0.41;100.00
47054;BME280;32811;52.382;5.270;2023-04-03T04:13:20;103291.88;;;0.32;100.00
47054;BME280;32811;52.382;5.270;2023-04-03T04:15:46;103304.09;;;0.36;100.00
47054;BME280;32811;52.382;5.270;2023-04-03T04:18:13;103308.38;;;0.37;100.00
47054;BME280;32811;52.382;5.270;2023-04-03T04:20:39;103317.28;;;0.32;100.00
47054;BME280;32811;52.382;5.270;2023-04-03T04:23:06;103313.56;;;0.28;100.00
47054;BME280;32811;52.382;5.270;2023-04-03T04:25:33;103307.34;;;0.25;100.00
47054;BME280;32811;52.382;5.270;2023-04-03T04:28:00;103307.13;;;0.32;100.00
47054;BME280;32811;52.382;5.270;2023-04-03T04:30:26;103311.28;;;0.31;100.00
47054;BME280;32811;52.382;5.270;2023-04-03T04:32:53;103310.41;;;0.31;100.00
47054;BME280;32811;52.382;5.270;2023-04-03T04:35:20;103307.06;;;0.22;100.00
47054;BME280;32811;52.382;5.270;2023-04-03T04:37:47;103302.00;;;0.22;100.00
47054;BME280;32811;52.382;5.270;2023-04-03T04:40:14;103299.44;;;0.22;100.00
47054;BME280;32811;52.382;5.270;2023-04-03T04:42:41;103298.97;;;0.26;100.00
47054;BME280;32811;52.382;5.270;2023-04-03T04:45:07;103300.31;;;0.22;100.00
47054;BME280;32811;52.382;5.270;2023-04-03T04:47:34;103308.88;;;0.23;100.00
47054;BME280;32811;52.382;5.270;2023-04-03T04:50:00;103307.56;;;0.17;100.00
47054;BME280;32811;52.382;5.270;2023-04-03T04:52:27;103315.81;;;0.15;100.00
47054;BME280;32811;52.382;5.270;2023-04-03T04:54:54;103317.94;;;0.10;100.00
47054;BME280;32811;52.382;5.270;2023-04-03T04:57:20;103324.69;;;0.10;100.00
47054;BME280;32811;52.382;5.270;2023-04-03T04:59:47;103318.44;;;0.06;100.00
47054;BME280;32811;52.382;5.270;2023-04-03T05:02:14;103328.88;;;0.09;100.00
47054;BME280;32811;52.382;5.270;2023-04-03T05:04:40;103328.88;;;0.09;100.00
47054;BME280;32811;52.382;5.270;2023-04-03T05:07:07;103319.31;;;0.07;100.00
47054;BME280;32811;52.382;5.270;2023-04-03T05:09:34;103328.09;;;0.10;100.00
47054;BME280;32811;52.382;5.270;2023-04-03T05:12:00;103332.16;;;0.08;100.00
47054;BME280;32811;52.382;5.270;2023-04-03T05:14:28;103338.00;;;0.07;100.00
47054;BME280;32811;52.382;5.270;2023-04-03T05:16:55;103334.56;;;0.07;100.00
47054;BME280;32811;52.382;5.270;2023-04-03T05:19:21;103331.91;;;0.05;100.00
47054;BME280;32811;52.382;5.270;2023-04-03T05:21:48;103327.84;;;0.07;100.00
47054;BME280;32811;52.382;5.270;2023-04-03T05:24:15;103333.94;;;0.09;100.00
47054;BME280;32811;52.382;5.270;2023-04-03T05:26:42;103339.63;;;0.07;100.00
47054;BME280;32811;52.382;5.270;2023-04-03T05:29:09;103333.16;;;0.00;100.00
47054;BME280;32811;52.382;5.270;2023-04-03T05:31:36;103348.66;;;0.03;100.00
47054;BME280;32811;52.382;5.270;2023-04-03T05:34:03;103353.97;;;0.06;100.00
47054;BME280;32811;52.382;5.270;2023-04-03T05:36:29;103342.53;;;0.01;100.00
47054;BME280;32811;52.382;5.270;2023-04-03T05:38:56;103354.53;;;0.12;100.00
47054;BME280;32811;52.382;5.270;2023-04-03T05:41:23;103345.00;;;0.10;100.00
47054;BME280;32811;52.382;5.270;2023-04-03T05:43:50;103352.53;;;0.18;100.00
47054;BME280;32811;52.382;5.270;2023-04-03T05:46:18;103343.66;;;0.24;100.00
47054;BME280;32811;52.382;5.270;2023-04-03T05:48:45;103356.66;;;0.37;100.00
47054;BME280;32811;52.382;5.270;2023-04-03T05:51:19;103360.31;;;0.70;100.00
47054;BME280;32811;52.382;5.270;2023-04-03T05:53:49;103354.78;;;1.15;100.00
47054;BME280;32811;52.382;5.270;2023-04-03T05:56:18;103350.31;;;1.43;100.00
47054;BME280;32811;52.382;5.270;2023-04-03T05:58:45;103352.97;;;1.55;100.00
47054;BME280;32811;52.382;5.270;2023-04-03T06:01:11;103349.44;;;1.95;100.00
47054;BME280;32811;52.382;5.270;2023-04-03T06:03:38;103362.25;;;2.07;100.00
47054;BME280;32811;52.382;5.270;2023-04-03T06:06:06;103361.25;;;2.37;100.00
47054;BME280;32811;52.382;5.270;2023-04-03T06:08:34;103363.34;;;2.53;100.00
47054;BME280;32811;52.382;5.270;2023-04-03T06:11:01;103362.47;;;2.75;100.00
47054;BME280;32811;52.382;5.270;2023-04-03T06:13:28;103365.88;;;2.97;100.00
47054;BME280;32811;52.382;5.270;2023-04-03T06:15:55;103369.56;;;3.12;100.00
47054;BME280;32811;52.382;5.270;2023-04-03T06:18:23;103369.94;;;3.17;100.00
47054;BME280;32811;52.382;5.270;2023-04-03T06:20:49;103359.97;;;3.32;100.00
47054;BME280;32811;52.382;5.270;2023-04-03T06:23:16;103369.78;;;3.49;100.00
47054;BME280;32811;52.382;5.270;2023-04-03T06:25:43;103373.13;;;3.48;100.00
47054;BME280;32811;52.382;5.270;2023-04-03T06:28:10;103372.66;;;3.66;100.00
47054;BME280;32811;52.382;5.270;2023-04-03T06:30:37;103371.16;;;3.80;100.00
47054;BME280;32811;52.382;5.270;2023-04-03T06:33:04;103366.03;;;3.80;100.00
47054;BME280;32811;52.382;5.270;2023-04-03T06:35:31;103374.47;;;3.67;100.00
47054;BME280;32811;52.382;5.270;2023-04-03T06:37:58;103378.91;;;3.58;100.00
47054;BME280;32811;52.382;5.270;2023-04-03T06:40:25;103378.69;;;3.66;100.00
47054;BME280;32811;52.382;5.270;2023-04-03T06:42:52;103387.91;;;3.76;100.00
47054;BME280;32811;52.382;5.270;2023-04-03T06:45:19;103380.31;;;3.42;100.00
47054;BME280;32811;52.382;5.270;2023-04-03T06:47:46;103387.22;;;3.55;100.00
47054;BME280;32811;52.382;5.270;2023-04-03T06:50:13;103382.00;;;3.53;100.00
47054;BME280;32811;52.382;5.270;2023-04-03T06:52:41;103391.88;;;3.49;100.00
47054;BME280;32811;52.382;5.270;2023-04-03T06:55:08;103393.56;;;3.72;100.00
47054;BME280;32811;52.382;5.270;2023-04-03T06:57:36;103399.13;;;3.90;100.00
47054;BME280;32811;52.382;5.270;2023-04-03T07:00:03;103400.22;;;3.70;100.00
47054;BME280;32811;52.382;5.270;2023-04-03T07:02:30;103410.81;;;3.86;100.00
47054;BME280;32811;52.382;5.270;2023-04-03T07:04:57;103405.78;;;3.88;100.00
47054;BME280;32811;52.382;5.270;2023-04-03T07:07:24;103408.47;;;3.89;100.00
47054;BME280;32811;52.382;5.270;2023-04-03T07:09:51;103421.78;;;3.85;100.00
47054;BME280;32811;52.382;5.270;2023-04-03T07:12:17;103423.75;;;3.66;100.00
47054;BME280;32811;52.382;5.270;2023-04-03T07:14:44;103414.13;;;3.73;100.00
47054;BME280;32811;52.382;5.270;2023-04-03T07:17:10;103424.91;;;3.93;100.00
47054;BME280;32811;52.382;5.270;2023-04-03T07:19:37;103429.91;;;4.03;100.00
47054;BME280;32811;52.382;5.270;2023-04-03T07:22:04;103415.53;;;3.82;100.00
47054;BME280;32811;52.382;5.270;2023-04-03T07:24:30;103428.03;;;4.01;100.00
47054;BME280;32811;52.382;5.270;2023-04-03T07:26:57;103431.91;;;4.31;100.00
47054;BME280;32811;52.382;5.270;2023-04-03T07:29:23;103428.44;;;4.30;100.00
47054;BME280;32811;52.382;5.270;2023-04-03T07:31:50;103435.34;;;4.43;100.00
47054;BME280;32811;52.382;5.270;2023-04-03T07:34:17;103434.66;;;4.46;100.00
47054;BME280;32811;52.382;5.270;2023-04-03T07:36:43;103428.69;;;4.33;100.00
47054;BME280;32811;52.382;5.270;2023-04-03T07:39:10;103428.25;;;4.27;100.00
47054;BME280;32811;52.382;5.270;2023-04-03T07:41:37;103425.41;;;4.60;100.00
47054;BME280;32811;52.382;5.270;2023-04-03T07:44:04;103432.88;;;4.33;100.00
47054;BME280;32811;52.382;5.270;2023-04-03T07:46:31;103418.13;;;4.17;100.00
47054;BME280;32811;52.382;5.270;2023-04-03T07:48:58;103423.78;;;4.36;100.00
47054;BME280;32811;52.382;5.270;2023-04-03T07:51:25;103422.91;;;4.73;100.00
47054;BME280;32811;52.382;5.270;2023-04-03T07:53:52;103426.31;;;4.97;100.00
47054;BME280;32811;52.382;5.270;2023-04-03T07:56:19;103426.09;;;4.94;100.00
47054;BME280;32811;52.382;5.270;2023-04-03T07:58:46;103432.53;;;4.52;100.00
47054;BME280;32811;52.382;5.270;2023-04-03T08:01:13;103429.28;;;4.66;100.00
47054;BME280;32811;52.382;5.270;2023-04-03T08:03:40;103435.63;;;4.71;100.00
47054;BME280;32811;52.382;5.270;2023-04-03T08:06:08;103437.59;;;5.12;100.00
47054;BME280;32811;52.382;5.270;2023-04-03T08:08:41;103439.69;;;5.18;100.00
47054;BME280;32811;52.382;5.270;2023-04-03T08:11:10;103428.72;;;5.32;100.00
47054;BME280;32811;52.382;5.270;2023-04-03T08:13:37;103440.72;;;5.58;100.00
47054;BME280;32811;52.382;5.270;2023-04-03T08:16:13;103439.34;;;5.64;100.00
47054;BME280;32811;52.382;5.270;2023-04-03T08:18:43;103445.38;;;5.77;100.00
47054;BME280;32811;52.382;5.270;2023-04-03T08:21:11;103439.56;;;5.80;100.00
47054;BME280;32811;52.382;5.270;2023-04-03T08:23:39;103444.31;;;5.74;100.00
47054;BME280;32811;52.382;5.270;2023-04-03T08:26:09;103447.59;;;5.98;100.00
47054;BME280;32811;52.382;5.270;2023-04-03T08:28:36;103444.94;;;5.96;100.00
47054;BME280;32811;52.382;5.270;2023-04-03T08:31:05;103455.41;;;6.26;100.00
47054;BME280;32811;52.382;5.270;2023-04-03T08:33:34;103450.31;;;5.88;99.49
47054;BME280;32811;52.382;5.270;2023-04-03T08:36:05;103453.94;;;5.78;100.00
47054;BME280;32811;52.382;5.270;2023-04-03T08:38:33;103450.31;;;5.88;100.00
47054;BME280;32811;52.382;5.270;2023-04-03T08:41:40;103451.31;;;5.90;100.00
47054;BME280;32811;52.382;5.270;2023-04-03T08:49:56;103466.59;;;5.88;95.75
47054;BME280;32811;52.382;5.270;2023-04-03T08:52:43;103459.41;;;5.96;87.08
47054;BME280;32811;52.382;5.270;2023-04-03T09:00:49;103462.50;;;6.30;77.57
47054;BME280;32811;52.382;5.270;2023-04-03T09:03:21;103462.41;;;6.42;71.21
47054;BME280;32811;52.382;5.270;2023-04-03T09:05:56;103463.47;;;6.59;72.75
47054;BME280;32811;52.382;5.270;2023-04-03T09:08:30;103456.78;;;6.48;69.59
47054;BME280;32811;52.382;5.270;2023-04-03T09:11:21;103447.59;;;6.38;73.72
47054;BME280;32811;52.382;5.270;2023-04-03T09:16:42;103438.91;;;6.49;67.55
47054;BME280;32811;52.382;5.270;2023-04-03T09:24:36;103445.53;;;6.59;65.73
47054;BME280;32811;52.382;5.270;2023-04-03T09:27:10;103445.97;;;6.67;65.14
47054;BME280;32811;52.382;5.270;2023-04-03T09:29:41;103443.94;;;6.61;62.76
47054;BME280;32811;52.382;5.270;2023-04-03T09:32:21;103440.25;;;6.71;62.22
47054;BME280;32811;52.382;5.270;2023-04-03T09:34:49;103443.38;;;6.80;60.04
47054;BME280;32811;52.382;5.270;2023-04-03T09:40:11;103439.13;;;6.80;59.32
47054;BME280;32811;52.382;5.270;2023-04-03T09:42:53;103433.44;;;6.71;58.95
47054;BME280;32811;52.382;5.270;2023-04-03T09:45:34;103423.13;;;6.84;61.27
47054;BME280;32811;52.382;5.270;2023-04-03T09:48:06;103426.03;;;7.19;59.09
47054;BME280;32811;52.382;5.270;2023-04-03T09:50:38;103422.16;;;7.25;54.45
47054;BME280;32811;52.382;5.270;2023-04-03T09:53:41;103419.91;;;7.45;53.28
47054;BME280;32811;52.382;5.270;2023-04-03T09:56:19;103415.22;;;7.53;51.18
47054;BME280;32811;52.382;5.270;2023-04-03T10:01:37;103416.34;;;7.43;53.15
47054;BME280;32811;52.382;5.270;2023-04-03T10:04:17;103411.94;;;7.12;49.07
47054;BME280;32811;52.382;5.270;2023-04-03T10:06:53;103402.31;;;7.23;47.42
47054;BME280;32811;52.382;5.270;2023-04-03T10:09:25;103395.47;;;7.37;47.17
47054;BME280;32811;52.382;5.270;2023-04-03T10:12:12;103399.69;;;7.51;45.24
47054;BME280;32811;52.382;5.270;2023-04-03T10:17:58;103398.28;;;7.56;44.35
47054;BME280;32811;52.382;5.270;2023-04-03T10:20:43;103386.59;;;7.46;44.02
47054;BME280;32811;52.382;5.270;2023-04-03T10:23:33;103383.91;;;7.45;44.23
47054;BME280;32811;52.382;5.270;2023-04-03T10:26:29;103379.84;;;7.78;45.18
47054;BME280;32811;52.382;5.270;2023-04-03T10:29:22;103380.28;;;7.86;47.17
47054;BME280;32811;52.382;5.270;2023-04-03T10:34:47;103374.38;;;8.03;45.41
47054;BME280;32811;52.382;5.270;2023-04-03T10:37:38;103368.81;;;7.81;44.73
47054;BME280;32811;52.382;5.270;2023-04-03T10:40:52;103361.94;;;7.80;43.90
47054;BME280;32811;52.382;5.270;2023-04-03T10:43:33;103367.31;;;7.99;46.03
47054;BME280;32811;52.382;5.270;2023-04-03T10:46:14;103362.84;;;8.28;44.56
47054;BME280;32811;52.382;5.270;2023-04-03T10:48:56;103353.78;;;8.03;43.36
47054;BME280;32811;52.382;5.270;2023-04-03T10:51:35;103358.50;;;8.10;42.68
47054;BME280;32811;52.382;5.270;2023-04-03T10:56:56;103348.88;;;7.77;40.89
47054;BME280;32811;52.382;5.270;2023-04-03T10:59:50;103350.94;;;8.14;43.83
47054;BME280;32811;52.382;5.270;2023-04-03T11:02:43;103361.31;;;8.15;42.99
47054;BME280;32811;52.382;5.270;2023-04-03T11:05:18;103347.25;;;8.08;42.79
47054;BME280;32811;52.382;5.270;2023-04-03T11:07:50;103354.25;;;8.11;41.99
47054;BME280;32811;52.382;5.270;2023-04-03T11:10:23;103357.59;;;8.41;44.90
47054;BME280;32811;52.382;5.270;2023-04-03T11:13:26;103371.28;;;8.40;40.79
47054;BME280;32811;52.382;5.270;2023-04-03T11:15:56;103349.50;;;8.19;41.50
47054;BME280;32811;52.382;5.270;2023-04-03T11:18:32;103341.25;;;8.24;41.98
47054;BME280;32811;52.382;5.270;2023-04-03T11:21:11;103339.69;;;8.59;42.49
47054;BME280;32811;52.382;5.270;2023-04-03T11:23:40;103343.63;;;8.52;42.08
47054;BME280;32811;52.382;5.270;2023-04-03T11:26:21;103346.53;;;8.42;40.84
47054;BME280;32811;52.382;5.270;2023-04-03T11:29:17;103347.19;;;8.71;42.35
47054;BME280;32811;52.382;5.270;2023-04-03T11:34:39;103337.44;;;8.65;41.22
47054;BME280;32811;52.382;5.270;2023-04-03T11:37:32;103342.84;;;8.54;41.91
47054;BME280;32811;52.382;5.270;2023-04-03T11:40:07;103337.53;;;8.67;41.47
47054;BME280;32811;52.382;5.270;2023-04-03T11:42:40;103340.09;;;8.67;40.92
47054;BME280;32811;52.382;5.270;2023-04-03T12:16:45;103275.16;;;8.72;41.96
47054;BME280;32811;52.382;5.270;2023-04-03T12:26:50;103277.53;;;8.86;42.49
47054;BME280;32811;52.382;5.270;2023-04-03T12:29:21;103266.88;;;8.78;41.32
47054;BME280;32811;52.382;5.270;2023-04-03T12:42:48;103242.72;;;8.76;41.41
47054;BME280;32811;52.382;5.270;2023-04-03T12:45:25;103238.91;;;8.86;42.86
47054;BME280;32811;52.382;5.270;2023-04-03T12:47:54;103248.38;;;9.03;43.42
47054;BME280;32811;52.382;5.270;2023-04-03T12:52:55;103231.94;;;9.01;42.76
47054;BME280;32811;52.382;5.270;2023-04-03T12:55:23;103232.19;;;9.24;43.78
47054;BME280;32811;52.382;5.270;2023-04-03T12:57:49;103223.00;;;9.11;41.96
47054;BME280;32811;52.382;5.270;2023-04-03T13:02:48;103230.53;;;9.24;43.14
47054;BME280;32811;52.382;5.270;2023-04-03T13:05:18;103221.88;;;9.24;43.49
47054;BME280;32811;52.382;5.270;2023-04-03T13:08:09;103241.72;;;9.43;43.34
47054;BME280;32811;52.382;5.270;2023-04-03T13:10:55;103235.72;;;9.08;41.50
47054;BME280;32811;52.382;5.270;2023-04-03T13:13:24;103213.03;;;9.01;43.48
47054;BME280;32811;52.382;5.270;2023-04-03T13:15:53;103220.78;;;9.01;41.94
47054;BME280;32811;52.382;5.270;2023-04-03T13:18:26;103219.66;;;8.96;43.86
47054;BME280;32811;52.382;5.270;2023-04-03T13:21:06;103233.31;;;9.11;44.81
47054;BME280;32811;52.382;5.270;2023-04-03T13:23:36;103230.53;;;8.90;43.71
47054;BME280;32811;52.382;5.270;2023-04-03T13:26:05;103217.75;;;8.91;45.81
47054;BME280;32811;52.382;5.270;2023-04-03T13:28:33;103229.59;;;9.06;44.45
47054;BME280;32811;52.382;5.270;2023-04-03T13:33:37;103220.56;;;9.14;45.36
47054;BME280;32811;52.382;5.270;2023-04-03T13:36:16;103199.59;;;9.24;43.68
47054;BME280;32811;52.382;5.270;2023-04-03T13:38:44;103212.16;;;9.00;43.72
47054;BME280;32811;52.382;5.270;2023-04-03T13:41:34;103218.41;;;9.05;43.58
47054;BME280;32811;52.382;5.270;2023-04-03T13:44:35;103201.47;;;9.28;44.59
47054;BME280;32811;52.382;5.270;2023-04-03T13:49:43;103217.34;;;9.18;42.50
47054;BME280;32811;52.382;5.270;2023-04-03T13:55:03;103215.94;;;9.07;44.21
47054;BME280;32811;52.382;5.270;2023-04-03T14:02:55;103212.22;;;9.20;43.04
47054;BME280;32811;52.382;5.270;2023-04-03T14:05:23;103216.19;;;9.13;44.50
47054;BME280;32811;52.382;5.270;2023-04-03T14:07:53;103203.03;;;9.07;44.68
47054;BME280;32811;52.382;5.270;2023-04-03T14:10:20;103205.63;;;9.07;44.11
47054;BME280;32811;52.382;5.270;2023-04-03T14:12:47;103212.09;;;8.99;43.99
47054;BME280;32811;52.382;5.270;2023-04-03T14:15:18;103195.81;;;9.00;43.04
47054;BME280;32811;52.382;5.270;2023-04-03T14:17:46;103184.19;;;8.90;43.45
47054;BME280;32811;52.382;5.270;2023-04-03T14:20:15;103192.72;;;8.89;43.85
47054;BME280;32811;52.382;5.270;2023-04-03T14:22:42;103183.94;;;8.85;45.37
47054;BME280;32811;52.382;5.270;2023-04-03T14:25:09;103174.47;;;8.84;43.25
47054;BME280;32811;52.382;5.270;2023-04-03T14:27:42;103187.94;;;8.97;45.17
47054;BME280;32811;52.382;5.270;2023-04-03T14:30:15;103180.72;;;8.89;45.17
47054;BME280;32811;52.382;5.270;2023-04-03T14:32:42;103172.59;;;8.82;44.96
47054;BME280;32811;52.382;5.270;2023-04-03T14:35:08;103182.03;;;8.99;45.61
47054;BME280;32811;52.382;5.270;2023-04-03T14:37:35;103174.69;;;8.89;43.37
47054;BME280;32811;52.382;5.270;2023-04-03T14:40:04;103170.28;;;8.86;44.73
47054;BME280;32811;52.382;5.270;2023-04-03T14:42:33;103174.19;;;8.96;44.46
47054;BME280;32811;52.382;5.270;2023-04-03T14:45:03;103179.84;;;8.89;43.98
47054;BME280;32811;52.382;5.270;2023-04-03T14:47:31;103174.47;;;8.84;47.46
47054;BME280;32811;52.382;5.270;2023-04-03T14:50:03;103174.75;;;8.90;44.71
47054;BME280;32811;52.382;5.270;2023-04-03T14:52:34;103156.72;;;8.72;44.88
47054;BME280;32811;52.382;5.270;2023-04-03T14:55:03;103189.84;;;9.01;45.51
47054;BME280;32811;52.382;5.270;2023-04-03T14:57:30;103180.59;;;8.86;44.94